Latest Weather Observations for Greenbank (Defence)

IDQ60901

Issued at 10:31 pm EST Friday 22 June 2018 (issued every 10 minutes, with the page automatically refreshed every 10 minutes)

About weather observations | Map of Brisbane area stations | Latest observations for Brisbane area | Other Formats
Station Details ID: 140009 Name: GREENBANK (DEFENCE) Lat: -27.69 Lon: 152.99 Height: 41.46 m
Data from the previous 72 hours. | See also: Recent months for locations in Queensland
Date/Time
EST
Temp
°C
App
Temp
°C
Dew
Point
°C
Rel
Hum
%
Delta-T
°C
Wind Press
QNH
hPa
Press
MSL
hPa
Rain since
9am
mm
Dir  Spd
km/h
Gust
km/h
Spd
kts
Gust
kts
22/10:30pm 7.5 6.8 6.9 96 0.3 CALM 0 0 0 0 - - 0.0
22/10:00pm 8.1 7.5 7.5 96 0.3 CALM 0 0 0 0 - - 0.0
22/09:30pm 8.4 7.8 7.5 94 0.4 CALM 0 0 0 0 - - 0.0
22/09:00pm 9.2 8.8 8.1 93 0.5 CALM 0 0 0 0 - - 0.0
22/08:30pm 10.0 9.7 8.8 92 0.6 CALM 0 0 0 0 - - 0.0
22/08:00pm 10.5 10.3 8.9 90 0.8 CALM 0 2 0 1 - - 0.0
22/07:30pm 11.2 10.7 9.3 88 1.0 S 2 4 1 2 - - 0.0
22/07:00pm 12.5 12.4 9.5 82 1.5 CALM 0 0 0 0 - - 0.0
22/06:30pm 13.8 13.3 9.5 75 2.2 SE 2 4 1 2 - - 0.0
22/06:00pm 15.7 15.6 9.6 67 3.2 CALM 0 0 0 0 - - 0.0
22/05:30pm 17.7 17.6 9.3 58 4.4 CALM 0 6 0 3 - - 0.0
22/05:00pm 19.0 18.5 9.2 53 5.2 ESE 2 6 1 3 - - 0.0
22/04:30pm 19.6 18.8 9.5 52 5.4 E 4 13 2 7 - - 0.0
22/04:00pm 20.3 18.9 8.9 48 6.0 ENE 6 19 3 10 - - 0.0
22/03:30pm 21.6 19.8 7.8 41 7.2 E 7 11 4 6 - - 0.0
22/03:00pm 22.1 20.2 7.5 39 7.6 ENE 7 13 4 7 - - 0.0
22/02:30pm 22.1 20.5 8.2 41 7.3 ESE 6 13 3 7 - - 0.0
22/02:00pm 21.2 19.6 8.1 43 6.8 E 6 13 3 7 - - 0.0
22/01:30pm 22.3 20.5 8.1 40 7.5 ENE 7 17 4 9 - - 0.0
22/01:00pm 22.2 20.3 7.6 39 7.6 S 7 13 4 7 - - 0.0
22/12:30pm 22.0 20.4 8.9 43 7.0 SSW 7 15 4 8 - - 0.0
22/12:00pm 21.0 19.0 8.6 45 6.5 SSE 9 15 5 8 - - 0.0
22/11:30am 20.8 19.4 9.4 48 6.1 SE 7 13 4 7 - - 0.0
22/11:00am 20.1 18.7 9.7 51 5.6 SSE 7 15 4 8 - - 0.0
22/10:30am 19.0 17.3 9.8 55 4.9 SSW 9 17 5 9 - - 0.0
22/10:00am 18.1 16.6 10.5 61 4.1 S 9 15 5 8 - - 0.0
22/09:30am 16.9 16.0 10.5 66 3.4 SSW 6 11 3 6 - - 0.0
22/09:00am 14.0 14.3 10.8 81 1.7 CALM 0 7 0 4 - - 0.0
22/08:30am 9.7 9.3 8.3 91 0.7 CALM 0 0 0 0 - - 0.0
22/08:00am 6.5 5.7 6.4 99 0.0 CALM 0 0 0 0 - - 0.0
22/07:30am 4.3 3.0 4.2 99 0.0 CALM 0 0 0 0 - - 0.0
22/07:00am 3.1 1.6 3.0 99 0.0 CALM 0 0 0 0 - - 0.0
22/06:30am 3.2 1.7 3.1 99 0.0 CALM 0 0 0 0 - - 0.0
22/06:00am 3.4 2.0 3.3 99 0.0 CALM 0 0 0 0 - - 0.0
22/05:30am 3.5 2.1 3.4 99 0.0 CALM 0 0 0 0 - - 0.0
22/05:00am 4.0 2.7 3.9 99 0.0 CALM 0 0 0 0 - - 0.0
22/04:30am 3.9 2.5 3.8 99 0.0 CALM 0 0 0 0 - - 0.0
22/04:00am 4.1 2.8 4.0 99 0.0 CALM 0 0 0 0 - - 0.0
22/03:30am 4.3 3.0 4.2 99 0.0 CALM 0 0 0 0 - - 0.0
22/03:00am 4.4 3.1 4.1 98 0.1 CALM 0 0 0 0 - - 0.0
22/02:30am 4.6 3.3 4.3 98 0.1 CALM 0 0 0 0 - - 0.0
22/02:00am 5.0 3.8 4.7 98 0.1 CALM 0 0 0 0 - - 0.0
22/01:30am 5.3 4.2 5.2 99 0.0 CALM 0 0 0 0 - - 0.0
22/01:00am 5.3 4.2 5.0 98 0.1 CALM 0 0 0 0 - - 0.0
22/12:30am 5.7 4.7 5.4 98 0.1 CALM 0 0 0 0 - - 0.0
22/12:00am 6.2 5.3 5.9 98 0.1 CALM 0 0 0 0 - - 0.0
 
Date/Time
EST
Temp
°C
App
Temp
°C
Dew
Point
°C
Rel
Hum
%
Delta-T
°C
Wind Press
QNH
hPa
Press
MSL
hPa
Rain since
9am
mm
Dir  Spd
km/h
Gust
km/h
Spd
kts
Gust
kts
21/11:30pm 6.4 5.5 6.1 98 0.1 CALM 0 0 0 0 - - 0.0
21/11:00pm 6.8 6.0 6.5 98 0.1 CALM 0 0 0 0 - - 0.0
21/10:30pm 7.2 6.5 6.9 98 0.1 CALM 0 0 0 0 - - 0.0
21/10:00pm 7.4 6.7 7.0 97 0.2 CALM 0 0 0 0 - - 0.0
21/09:30pm 7.9 7.3 7.5 97 0.2 CALM 0 0 0 0 - - 0.0
21/09:00pm 8.5 8.1 8.1 97 0.2 CALM 0 0 0 0 - - 0.0
21/08:30pm 8.9 8.5 8.3 96 0.3 CALM 0 0 0 0 - - 0.0
21/08:00pm 9.7 9.5 9.1 96 0.3 CALM 0 0 0 0 - - 0.0
21/07:30pm 10.3 10.2 9.4 94 0.4 CALM 0 0 0 0 - - 0.0
21/07:00pm 11.1 11.1 9.9 92 0.6 CALM 0 0 0 0 - - 0.0
21/06:30pm 11.9 12.0 10.3 90 0.8 CALM 0 0 0 0 - - 0.0
21/06:00pm 13.2 13.4 10.7 85 1.3 CALM 0 0 0 0 - - 0.0
21/05:30pm 14.9 15.2 10.9 77 2.1 CALM 0 0 0 0 - - 0.0
21/05:00pm 16.9 17.2 11.0 68 3.2 CALM 0 0 0 0 - - 0.0
21/04:30pm 18.5 18.4 10.8 61 4.2 SE 2 6 1 3 - - 0.0
21/04:00pm 19.3 18.4 10.6 57 4.7 ESE 6 11 3 6 - - 0.0
21/03:30pm 19.6 18.7 10.6 56 4.9 ESE 6 11 3 6 - - 0.0
21/03:00pm 21.6 20.6 10.4 49 6.1 E 6 11 3 6 - - 0.0
21/02:30pm 20.9 20.2 10.1 50 5.8 E 4 9 2 5 - - 0.0
21/02:00pm 20.9 20.1 9.5 48 6.1 SE 4 7 2 4 - - 0.0
21/01:30pm 21.8 20.4 8.7 43 6.9 SE 6 19 3 10 - - 0.0
21/01:00pm 21.2 19.9 9.1 46 6.4 E 6 9 3 5 - - 0.0
21/12:30pm 20.8 19.1 8.4 45 6.5 SW 7 19 4 10 - - 0.0
21/12:00pm 21.0 19.5 8.6 45 6.5 SE 6 13 3 7 - - 0.0
21/11:30am 20.3 18.6 8.3 46 6.3 S 7 15 4 8 - - 0.0
21/11:00am 20.0 18.6 8.7 48 5.9 SSW 6 13 3 7 - - 0.0
21/10:30am 18.8 16.7 8.2 50 5.5 S 9 20 5 11 - - 0.0
21/10:00am 18.1 16.3 8.1 52 5.1 SSW 7 13 4 7 - - 0.0
21/09:30am 17.2 15.5 8.4 56 4.5 SW 7 13 4 7 - - 0.0
21/09:00am 14.1 13.8 8.5 69 2.8 CALM 0 0 0 0 - - 0.0
21/08:30am 11.2 10.4 6.7 74 2.1 CALM 0 0 0 0 - - 0.0
21/08:00am 7.4 6.5 6.2 92 0.5 CALM 0 0 0 0 - - 0.0
21/07:30am 5.6 4.6 5.5 99 0.0 CALM 0 0 0 0 - - 0.0
21/07:00am 4.6 3.4 4.5 99 0.0 CALM 0 0 0 0 - - 0.0
21/06:30am 4.3 3.0 4.0 98 0.1 CALM 0 0 0 0 - - 0.0
21/06:00am 4.5 3.2 4.2 98 0.1 CALM 0 0 0 0 - - 0.0
21/05:30am 5.1 3.9 4.8 98 0.1 CALM 0 0 0 0 - - 0.0
21/05:00am 5.2 4.0 4.8 97 0.2 CALM 0 0 0 0 - - 0.0
21/04:30am 5.6 4.5 5.2 97 0.2 CALM 0 0 0 0 - - 0.0
21/04:00am 5.9 4.9 5.5 97 0.2 CALM 0 0 0 0 - - 0.0
21/03:30am 6.3 5.4 5.9 97 0.2 CALM 0 0 0 0 - - 0.0
21/03:00am 6.5 5.6 5.9 96 0.3 CALM 0 0 0 0 - - 0.0
21/02:30am 6.9 6.1 6.3 96 0.3 CALM 0 2 0 1 - - 0.0
21/02:00am 6.9 5.6 6.0 94 0.4 SSE 2 6 1 3 - - 0.0
21/01:30am 7.7 6.5 6.3 91 0.6 S 2 6 1 3 - - 0.0
21/01:00am 7.5 5.9 6.3 92 0.5 S 4 7 2 4 - - 0.0
21/12:30am 7.7 6.1 6.3 91 0.6 SSW 4 7 2 4 - - 0.0
21/12:00am 8.7 7.2 7.0 89 0.8 S 4 9 2 5 - - 0.0
 
Date/Time
EST
Temp
°C
App
Temp
°C
Dew
Point
°C
Rel
Hum
%
Delta-T
°C
Wind Press
QNH
hPa
Press
MSL
hPa
Rain since
9am
mm
Dir  Spd
km/h
Gust
km/h
Spd
kts
Gust
kts
20/11:30pm 7.8 7.0 6.3 90 0.7 CALM 0 4 0 2 - - 0.0
20/11:00pm 8.4 7.2 6.5 88 0.9 SSW 2 6 1 3 - - 0.0
20/10:30pm 7.8 6.2 6.4 91 0.6 SW 4 6 2 3 - - 0.0
20/10:00pm 7.1 6.1 5.4 89 0.8 CALM 0 0 0 0 - - 0.0
20/09:30pm 8.2 6.7 6.7 90 0.7 SSW 4 9 2 5 - - 0.0
20/09:00pm 8.2 7.4 6.3 88 0.9 CALM 0 0 0 0 - - 0.0
20/08:30pm 9.3 8.2 7.1 86 1.0 SSW 2 6 1 3 - - 0.0
20/08:00pm 9.5 8.8 6.8 83 1.3 CALM 0 0 0 0 - - 0.0
20/07:30pm 10.7 10.0 6.8 77 1.8 CALM 0 2 0 1 - - 0.0
20/07:00pm 12.5 11.4 6.8 68 2.7 WSW 2 6 1 3 - - 0.0
20/06:30pm 14.6 13.6 7.4 62 3.6 S 2 7 1 4 - - 0.0
20/06:00pm 15.7 14.2 7.0 56 4.3 SSW 4 6 2 3 - - 0.0
20/05:30pm 17.4 15.5 6.9 50 5.2 SSW 6 13 3 7 - - 0.0
20/05:00pm 18.3 16.3 7.1 48 5.6 SSW 7 11 4 6 - - 0.0
20/04:30pm 19.1 17.2 7.5 47 5.9 SSW 7 17 4 9 - - 0.0
20/04:00pm 19.6 17.7 7.7 46 6.1 SSW 7 15 4 8 - - 0.0
20/03:30pm 20.2 17.6 7.9 45 6.4 SSW 11 20 6 11 - - 0.0
20/03:00pm 20.6 18.0 7.9 44 6.6 SSW 11 22 6 12 - - 0.0
20/02:30pm 20.8 19.0 8.1 44 6.6 S 7 19 4 10 - - 0.0
20/02:00pm 20.7 18.5 8.0 44 6.6 SSW 9 17 5 9 - - 0.0
20/01:30pm 20.4 17.9 8.4 46 6.3 SW 11 19 6 10 - - 0.0
20/01:00pm 20.3 17.4 8.0 45 6.4 SSW 13 24 7 13 - - 0.0
20/12:30pm 19.9 16.7 8.3 47 6.0 SW 15 28 8 15 - - 0.0
20/12:00pm 20.3 17.8 8.3 46 6.3 SSW 11 20 6 11 - - 0.0
20/11:30am 19.5 17.1 8.5 49 5.7 SSW 11 28 6 15 - - 0.0
20/11:00am 19.2 16.6 7.9 48 5.8 SSW 11 30 6 16 - - 0.0
20/10:30am 18.9 16.0 8.0 49 5.6 SSW 13 24 7 13 - - 0.0
20/10:00am 18.3 16.1 7.7 50 5.4 SW 9 19 5 10 - - 0.0
20/09:30am 17.0 13.5 7.1 52 4.9 SSW 15 26 8 14 - - 0.0
20/09:00am 14.3 12.6 5.9 57 4.0 W 4 7 2 4 - - 0.0
20/08:30am 12.2 10.3 5.1 62 3.3 W 4 7 2 4 - - 0.0
20/08:00am 9.4 7.7 5.8 78 1.6 W 4 7 2 4 - - 0.0
20/07:56am 9.0 7.3 6.1 82 1.3 W 4 6 2 3 - - 0.0
20/07:30am 4.0 2.7 3.9 99 0.0 CALM 0 0 0 0 - - 0.0
20/07:00am 2.5 0.9 2.4 99 0.0 CALM 0 0 0 0 - - 0.0
20/06:30am 2.2 0.5 1.9 98 0.1 CALM 0 0 0 0 - - 0.0
20/06:00am 2.4 0.7 2.1 98 0.1 CALM 0 0 0 0 - - 0.0
20/05:30am 2.5 0.5 2.4 99 0.0 SW 2 6 1 3 - - 0.0
20/05:00am 2.2 0.5 1.9 98 0.1 CALM 0 0 0 0 - - 0.0
20/04:30am 2.2 0.5 1.8 97 0.2 CALM 0 0 0 0 - - 0.0
20/04:00am 2.5 0.9 2.2 98 0.1 CALM 0 0 0 0 - - 0.0
20/03:30am 2.5 0.8 2.1 97 0.2 CALM 0 0 0 0 - - 0.0
20/03:00am 2.8 1.2 2.4 97 0.2 CALM 0 0 0 0 - - 0.0
20/02:30am 2.9 1.3 2.3 96 0.2 CALM 0 0 0 0 - - 0.0
20/02:00am 3.1 1.5 2.5 96 0.2 CALM 0 0 0 0 - - 0.0
20/01:30am 3.2 1.6 2.6 96 0.2 CALM 0 0 0 0 - - 0.0
20/01:00am 3.6 2.1 2.9 95 0.3 CALM 0 0 0 0 - - 0.0
20/12:30am 3.9 2.4 3.0 94 0.4 CALM 0 0 0 0 - - 0.0
20/12:00am 4.2 2.7 3.0 92 0.5 CALM 0 0 0 0 - - 0.0
 
Date/Time
EST
Temp
°C
App
Temp
°C
Dew
Point
°C
Rel
Hum
%
Delta-T
°C
Wind Press
QNH
hPa
Press
MSL
hPa
Rain since
9am
mm
Dir  Spd
km/h
Gust
km/h
Spd
kts
Gust
kts
19/11:30pm 4.8 3.4 3.6 92 0.5 CALM 0 0 0 0 - - 0.0
19/11:00pm 5.2 3.8 3.5 89 0.7 CALM 0 0 0 0 - - 0.0

Latest Capital City Observations: Canberra | Sydney | Melbourne | Brisbane | Adelaide | Perth | Hobart | Darwin

Other Formats:

Comma delimited format used in spreadsheet applications
http://www.bom.gov.au/fwo/IDQ60901/IDQ60901.94419.axf

JavaScript Object Notation format (JSON) in row-major order
http://www.bom.gov.au/fwo/IDQ60901/IDQ60901.94419.json